Ravenswood, Illinois
Current Conditions -  °F | °C
As of 10:51 AM on Friday 24 Oct 2014 (Local Time) from KORD Reporting Station
Broken Clouds Broken Clouds  
Wind Chill: 58°   Ceiling: 25000
Heat Index: 58°   Visibility: 10mi
Dew Point: 47°   Wind: 6mph
Humidity: 67%   Direction: NA
Pressure: 30.05"   Gusts: NA
Location:  41.9735°N, 87.7018°W
Report Text: KORD 241551Z VRB05KT 10SM BKN250 14/08 A3005 RMK AO2 SLP177 T01440083
Loading
Personal Weather Stations






























Interactive Weather Map New forecast layout! Learn more

10-Day Weather Forecast

Advertisements
Track Severe Weather on mobile